createdAt,value
2022-09-23T00:03:37.620Z,84.71
2022-09-23T00:08:42.932Z,84.94
2022-09-23T00:13:50.403Z,85.04
2022-09-23T00:18:54.679Z,85.10
2022-09-23T00:23:58.750Z,85.01
2022-09-23T00:29:02.740Z,84.96
2022-09-23T00:34:06.764Z,85.04
2022-09-23T00:39:10.905Z,84.92
2022-09-23T00:44:47.487Z,85.00
2022-09-23T00:50:23.695Z,85.06
2022-09-23T00:55:44.346Z,85.13
2022-09-23T01:00:48.835Z,85.18
2022-09-23T01:05:53.641Z,85.14
2022-09-23T01:11:01.609Z,85.25
2022-09-23T01:16:13.844Z,85.40
2022-09-23T01:21:57.791Z,85.41
2022-09-23T01:27:25.574Z,85.41
2022-09-23T01:32:56.640Z,85.47
2022-09-23T01:38:08.660Z,85.50
2022-09-23T01:43:36.027Z,85.49
2022-09-23T01:48:55.311Z,85.40
2022-09-23T01:54:16.555Z,85.25
2022-09-23T01:59:38.499Z,85.14
2022-09-23T02:05:18.876Z,85.11
2022-09-23T02:10:44.681Z,85.11
2022-09-23T02:15:57.323Z,85.13
2022-09-23T02:21:07.718Z,85.21
2022-09-23T02:26:31.424Z,85.26
2022-09-23T02:32:02.214Z,85.44
2022-09-23T02:37:39.686Z,85.69
2022-09-23T02:43:13.619Z,85.58
2022-09-23T02:48:25.024Z,85.49
2022-09-23T02:53:34.472Z,85.53
2022-09-23T02:58:38.042Z,85.71
2022-09-23T03:03:50.331Z,86.02
2022-09-23T03:09:13.908Z,86.04
2022-09-23T03:14:45.279Z,86.13
2022-09-23T03:20:04.997Z,86.16
2022-09-23T03:25:17.859Z,86.31
2022-09-23T03:30:22.197Z,86.29
2022-09-23T03:35:32.157Z,86.23
2022-09-23T03:40:43.856Z,86.36
2022-09-23T03:45:48.539Z,86.47
2022-09-23T03:50:55.050Z,86.20
2022-09-23T03:55:58.974Z,86.29
2022-09-23T04:01:02.978Z,86.46
2022-09-23T04:06:07.444Z,86.43
2022-09-23T04:11:12.094Z,86.19
2022-09-23T04:16:16.268Z,86.08
2022-09-23T04:21:20.249Z,85.86
2022-09-23T04:26:23.983Z,86.11
2022-09-23T04:31:29.240Z,86.52
2022-09-23T04:36:33.364Z,86.58
2022-09-23T04:41:40.288Z,86.78
2022-09-23T04:46:48.530Z,86.66
2022-09-23T04:51:52.923Z,86.46
2022-09-23T04:56:59.304Z,86.52
2022-09-23T05:02:03.192Z,86.46
2022-09-23T05:07:06.854Z,86.32
2022-09-23T05:12:10.885Z,86.12
2022-09-23T05:17:15.064Z,86.11
2022-09-23T05:22:18.736Z,86.06
2022-09-23T05:27:22.769Z,85.87
2022-09-23T05:32:26.894Z,86.00
2022-09-23T05:37:31.958Z,85.96
2022-09-23T05:42:36.186Z,85.92
2022-09-23T05:47:40.423Z,85.76
2022-09-23T05:52:44.342Z,85.62
2022-09-23T05:57:48.387Z,85.51
2022-09-23T06:02:52.444Z,85.46
2022-09-23T06:07:57.304Z,85.52
2022-09-23T06:13:01.473Z,85.35
2022-09-23T06:18:06.937Z,84.78
2022-09-23T06:23:12.115Z,84.20
2022-09-23T06:28:15.971Z,83.79
2022-09-23T06:33:29.661Z,83.33
2022-09-23T06:38:45.223Z,83.04
2022-09-23T06:43:49.414Z,83.03
2022-09-23T06:48:53.235Z,83.04
2022-09-23T06:53:57.169Z,82.61
2022-09-23T06:59:00.884Z,82.06
2022-09-23T07:04:04.882Z,81.26
2022-09-23T07:09:10.130Z,80.11
2022-09-23T07:14:14.794Z,79.49
2022-09-23T07:19:18.707Z,78.72
2022-09-23T07:24:23.411Z,78.69
2022-09-23T07:29:27.059Z,78.09
2022-09-23T07:34:30.695Z,77.71
2022-09-23T07:39:34.343Z,76.75
2022-09-23T07:44:38.179Z,75.75
2022-09-23T07:49:42.306Z,74.47
2022-09-23T07:54:48.657Z,75.11
2022-09-23T07:59:52.716Z,74.57
2022-09-23T08:04:56.644Z,74.48
2022-09-23T08:10:01.474Z,73.93
2022-09-23T08:15:07.015Z,74.01
2022-09-23T08:20:31.966Z,73.36
2022-09-23T08:25:35.897Z,72.79
2022-09-23T08:30:40.697Z,72.64
2022-09-23T08:35:45.068Z,73.04
2022-09-23T08:40:50.721Z,73.38
2022-09-23T08:46:01.182Z,73.44
2022-09-23T08:51:11.865Z,73.81
2022-09-23T08:56:22.826Z,74.10
2022-09-23T09:01:48.098Z,73.68
2022-09-23T09:07:36.582Z,73.94
2022-09-23T09:12:47.488Z,72.82
2022-09-23T09:18:00.125Z,71.15
2022-09-23T09:23:23.578Z,70.76
2022-09-23T09:28:46.936Z,70.04
2022-09-23T09:34:12.586Z,69.54
2022-09-23T09:39:17.749Z,69.33
2022-09-23T09:44:42.672Z,69.31
2022-09-23T09:50:07.783Z,68.92
2022-09-23T09:55:14.680Z,68.29
2022-09-23T10:00:43.604Z,66.43
2022-09-23T10:05:47.298Z,64.25
2022-09-23T10:11:11.813Z,61.53
2022-09-23T10:16:16.221Z,60.56
2022-09-23T10:21:27.883Z,57.61
2022-09-23T10:26:41.732Z,57.26
2022-09-23T10:31:45.941Z,57.76
2022-09-23T10:37:34.622Z,57.69
2022-09-23T10:43:38.256Z,58.97
2022-09-23T10:49:38.197Z,59.65
2022-09-23T10:55:24.514Z,60.55
2022-09-23T11:01:04.630Z,61.35
2022-09-23T11:07:07.970Z,61.51
2022-09-23T11:12:54.318Z,61.06
2022-09-23T11:18:36.058Z,59.87
2022-09-23T11:24:48.488Z,59.19
2022-09-23T11:30:20.532Z,59.91
2022-09-23T11:35:42.130Z,60.60
2022-09-23T11:40:55.108Z,61.77
2022-09-23T11:46:21.686Z,62.44
2022-09-23T11:51:29.949Z,63.58
2022-09-23T11:56:49.190Z,63.83
2022-09-23T12:02:17.917Z,64.09
2022-09-23T12:07:54.760Z,64.78
2022-09-23T12:13:19.498Z,65.63
2022-09-23T12:18:46.432Z,66.03
2022-09-23T12:24:05.847Z,66.07
2022-09-23T12:29:15.577Z,66.21
2022-09-23T12:34:52.486Z,66.50
2022-09-23T12:40:06.952Z,66.64
2022-09-23T12:45:36.157Z,67.10
2022-09-23T12:51:16.864Z,66.28
2022-09-23T12:56:43.937Z,65.95
2022-09-23T13:01:48.950Z,65.32
2022-09-23T13:07:45.864Z,64.38
2022-09-23T13:12:53.042Z,64.14
2022-09-23T13:18:21.873Z,63.38
2022-09-23T13:23:33.717Z,62.71
2022-09-23T13:28:54.244Z,63.17
2022-09-23T13:34:07.251Z,62.19
2022-09-23T13:39:25.226Z,61.81
2022-09-23T13:44:30.150Z,61.61
2022-09-23T13:49:37.428Z,61.38
2022-09-23T13:54:51.374Z,61.03
2022-09-23T13:59:55.423Z,60.20
2022-09-23T14:04:59.522Z,60.21
2022-09-23T14:10:07.203Z,59.72
2022-09-23T14:15:19.375Z,59.15
2022-09-23T14:20:23.834Z,58.88
2022-09-23T14:25:30.358Z,59.17
2022-09-23T14:30:35.602Z,59.65
2022-09-23T14:35:46.875Z,60.50
2022-09-23T14:41:18.272Z,61.67
2022-09-23T14:46:25.490Z,62.97
2022-09-23T14:51:36.401Z,63.99
2022-09-23T14:56:44.240Z,64.39
2022-09-23T15:01:48.313Z,65.31
2022-09-23T15:07:18.218Z,65.67
2022-09-23T15:12:23.093Z,66.54
2022-09-23T15:17:38.186Z,66.81
2022-09-23T15:22:48.958Z,67.10
2022-09-23T15:28:13.050Z,67.61
2022-09-23T15:33:18.484Z,67.89
2022-09-23T15:38:24.651Z,67.92
2022-09-23T15:43:35.032Z,67.92
2022-09-23T15:49:05.288Z,68.79
2022-09-23T15:54:15.939Z,69.58
2022-09-23T15:59:22.096Z,69.97
2022-09-23T16:04:26.556Z,70.39
2022-09-23T16:09:32.030Z,70.83
2022-09-23T16:14:36.041Z,71.49
2022-09-23T16:19:40.771Z,71.74
2022-09-23T16:24:47.862Z,72.27
2022-09-23T16:29:52.329Z,72.96
2022-09-23T16:34:59.022Z,73.50
2022-09-23T16:40:04.576Z,73.67
2022-09-23T16:45:10.443Z,74.19
2022-09-23T16:50:17.683Z,74.21
2022-09-23T16:55:22.400Z,74.39
2022-09-23T17:00:45.700Z,74.83
2022-09-23T17:05:50.972Z,75.13
2022-09-23T17:10:59.412Z,75.79
2022-09-23T17:16:03.656Z,76.43
2022-09-23T17:21:37.350Z,77.01
2022-09-23T17:26:42.753Z,77.40
2022-09-23T17:31:47.173Z,77.79
2022-09-23T17:36:51.163Z,77.46
2022-09-23T17:41:58.863Z,77.71
2022-09-23T17:47:04.129Z,78.18
2022-09-23T17:52:08.252Z,78.43
2022-09-23T17:57:13.524Z,78.57
2022-09-23T18:02:17.774Z,78.68
2022-09-23T18:07:25.663Z,78.64
2022-09-23T18:12:36.682Z,78.87
2022-09-23T18:17:42.153Z,78.95
2022-09-23T18:22:46.033Z,79.36
2022-09-23T18:27:49.914Z,79.33
2022-09-23T18:32:53.916Z,79.39
2022-09-23T18:37:59.681Z,79.64
2022-09-23T18:43:04.550Z,79.68
2022-09-23T18:48:28.844Z,79.76
2022-09-23T18:53:36.411Z,79.79
2022-09-23T18:58:53.035Z,79.71
2022-09-23T19:03:58.515Z,80.00
2022-09-23T19:09:03.905Z,79.92
2022-09-23T19:14:22.602Z,79.57
2022-09-23T19:19:30.652Z,79.82
2022-09-23T19:24:34.536Z,80.07
2022-09-23T19:29:41.254Z,80.19
2022-09-23T19:34:46.775Z,79.96
2022-09-23T19:39:51.113Z,79.94
2022-09-23T19:44:55.519Z,80.18
2022-09-23T19:49:59.304Z,79.92
2022-09-23T19:55:04.812Z,80.03
2022-09-23T20:00:10.287Z,80.35
2022-09-23T20:05:18.420Z,80.80
2022-09-23T20:10:24.239Z,81.40
2022-09-23T20:15:29.657Z,81.17
2022-09-23T20:20:33.906Z,81.17
2022-09-23T20:26:06.205Z,81.25
2022-09-23T20:31:16.858Z,80.91
2022-09-23T20:36:20.940Z,81.10
2022-09-23T20:41:27.009Z,81.00
2022-09-23T20:46:32.286Z,80.98
2022-09-23T20:51:37.710Z,80.97
2022-09-23T20:56:41.935Z,81.15
2022-09-23T21:01:46.183Z,81.41
2022-09-23T21:06:50.199Z,81.15
2022-09-23T21:11:55.446Z,81.32
2022-09-23T21:17:00.010Z,81.34
2022-09-23T21:22:04.431Z,81.33
2022-09-23T21:27:08.420Z,81.44
2022-09-23T21:32:12.190Z,81.87
2022-09-23T21:37:16.010Z,82.11
2022-09-23T21:42:21.989Z,82.21
2022-09-23T21:47:26.407Z,82.13
2022-09-23T21:52:30.551Z,82.19
2022-09-23T21:57:34.313Z,82.04
2022-09-23T22:02:40.312Z,81.78
2022-09-23T22:07:43.969Z,81.77
2022-09-23T22:12:50.469Z,81.57
2022-09-23T22:17:54.280Z,81.68
2022-09-23T22:22:57.908Z,82.04
2022-09-23T22:28:20.876Z,81.87
2022-09-23T22:33:24.598Z,81.63
2022-09-23T22:38:28.729Z,81.58
2022-09-23T22:43:34.091Z,81.72
2022-09-23T22:48:37.808Z,81.84
2022-09-23T22:53:41.742Z,81.81
2022-09-23T22:58:45.865Z,81.70
2022-09-23T23:03:54.170Z,81.71
2022-09-23T23:09:00.275Z,81.47
2022-09-23T23:14:04.636Z,81.21
2022-09-23T23:19:13.966Z,81.19
2022-09-23T23:24:24.753Z,81.06
2022-09-23T23:29:28.578Z,80.89
2022-09-23T23:34:32.812Z,80.92
2022-09-23T23:39:36.743Z,80.82
2022-09-23T23:44:40.759Z,80.63
2022-09-23T23:49:44.804Z,80.60
2022-09-23T23:54:48.825Z,80.41
2022-09-23T23:59:52.654Z,80.37
